createdAt,value
2018-02-11T00:02:23.950Z,100769.27
2018-02-11T00:04:52.741Z,100774.48
2018-02-11T00:07:21.244Z,100768.42
2018-02-11T00:09:50.208Z,100761.67
2018-02-11T00:12:18.732Z,100756.23
2018-02-11T00:14:47.504Z,100755.64
2018-02-11T00:17:16.073Z,100753.16
2018-02-11T00:19:45.102Z,100750.74
2018-02-11T00:22:13.800Z,100747.34
2018-02-11T00:24:42.282Z,100749.34
2018-02-11T00:27:10.768Z,100746.13
2018-02-11T00:29:39.301Z,100743.81
2018-02-11T00:32:07.817Z,100742.05
2018-02-11T00:34:37.564Z,100732.47
2018-02-11T00:37:07.926Z,100736.30
2018-02-11T00:39:37.943Z,100722.61
2018-02-11T00:42:06.995Z,100729.23
2018-02-11T00:44:36.874Z,100732.17
2018-02-11T00:47:06.128Z,100715.67
2018-02-11T00:49:34.935Z,100724.02
2018-02-11T00:52:04.302Z,100719.23
2018-02-11T00:54:32.901Z,100716.80
2018-02-11T00:57:01.404Z,100707.05
2018-02-11T00:59:30.577Z,100707.33
2018-02-11T01:01:59.524Z,100705.48
2018-02-11T01:04:28.504Z,100699.97
2018-02-11T01:06:58.048Z,100698.70
2018-02-11T01:09:26.776Z,100689.05
2018-02-11T01:11:55.337Z,100691.88
2018-02-11T01:14:23.812Z,100686.46
2018-02-11T01:16:52.473Z,100679.30
2018-02-11T01:19:21.009Z,100686.25
2018-02-11T01:21:49.515Z,100674.84
2018-02-11T01:24:18.205Z,100669.24
2018-02-11T01:26:46.800Z,100667.48
2018-02-11T01:29:15.283Z,100663.31
2018-02-11T01:31:43.777Z,100657.91
2018-02-11T01:34:12.288Z,100658.84
2018-02-11T01:36:41.145Z,100653.10
2018-02-11T01:39:09.635Z,100650.92
2018-02-11T01:41:38.156Z,100644.77
2018-02-11T01:44:07.584Z,100640.71
2018-02-11T01:46:36.364Z,100640.11
2018-02-11T01:49:04.936Z,100644.39
2018-02-11T01:51:33.664Z,100639.06
2018-02-11T01:54:02.155Z,100636.63
2018-02-11T01:56:31.473Z,100633.95
2018-02-11T01:59:00.325Z,100625.55
2018-02-11T02:01:29.222Z,100623.86
2018-02-11T02:03:59.202Z,100622.61
2018-02-11T02:06:27.894Z,100616.09
2018-02-11T02:08:56.481Z,100611.62
2018-02-11T02:11:24.984Z,100612.22
2018-02-11T02:13:53.840Z,100600.36
2018-02-11T02:16:22.628Z,100598.41
2018-02-11T02:18:51.141Z,100594.58
2018-02-11T02:21:19.652Z,100594.02
2018-02-11T02:23:48.204Z,100581.19
2018-02-11T02:26:16.760Z,100570.41
2018-02-11T02:28:45.487Z,100578.97
2018-02-11T02:31:13.976Z,100574.73
2018-02-11T02:33:42.521Z,100576.91
2018-02-11T02:36:11.029Z,100570.05
2018-02-11T02:38:39.484Z,100563.47
2018-02-11T02:41:11.200Z,100560.59
2018-02-11T02:43:39.826Z,100561.41
2018-02-11T02:46:08.452Z,100545.62
2018-02-11T02:48:36.988Z,100552.67
2018-02-11T02:51:05.543Z,100544.19
2018-02-11T02:53:34.132Z,100534.55
2018-02-11T02:56:02.996Z,100527.01
2018-02-11T02:58:31.509Z,100534.36
2018-02-11T03:01:00.075Z,100527.19
2018-02-11T03:03:28.570Z,100516.77
2018-02-11T03:05:57.191Z,100514.73
2018-02-11T03:08:25.729Z,100504.91
2018-02-11T03:10:54.323Z,100516.84
2018-02-11T03:13:22.823Z,100511.43
2018-02-11T03:15:51.517Z,100511.52
2018-02-11T03:18:20.122Z,100509.22
2018-02-11T03:20:49.405Z,100502.50
2018-02-11T03:23:17.980Z,100497.51
2018-02-11T03:25:46.685Z,100497.96
2018-02-11T03:28:15.524Z,100490.93
2018-02-11T03:30:47.713Z,100487.45
2018-02-11T03:33:22.268Z,100482.76
2018-02-11T03:35:50.811Z,100483.10
2018-02-11T03:38:22.369Z,100466.74
2018-02-11T03:40:51.066Z,100470.42
2018-02-11T03:43:19.722Z,100463.52
2018-02-11T03:45:48.240Z,100464.48
2018-02-11T03:48:16.700Z,100452.12
2018-02-11T03:50:45.221Z,100447.63
2018-02-11T03:53:13.848Z,100446.16
2018-02-11T03:55:42.583Z,100438.73
2018-02-11T03:58:11.231Z,100435.83
2018-02-11T04:00:39.748Z,100435.70
2018-02-11T04:03:08.290Z,100430.73
2018-02-11T04:05:36.822Z,100419.98
2018-02-11T04:08:05.320Z,100421.58
2018-02-11T04:10:34.822Z,100414.64
2018-02-11T04:13:03.766Z,100410.44
2018-02-11T04:15:32.800Z,100414.31
2018-02-11T04:18:01.750Z,100410.86
2018-02-11T04:20:30.358Z,100408.30
2018-02-11T04:22:59.332Z,100404.73
2018-02-11T04:25:27.830Z,100403.72
2018-02-11T04:27:56.291Z,100403.39
2018-02-11T04:30:24.781Z,100407.06
2018-02-11T04:32:53.280Z,100399.24
2018-02-11T04:35:21.804Z,100395.42
2018-02-11T04:37:50.605Z,100392.30
2018-02-11T04:40:19.104Z,100395.25
2018-02-11T04:42:47.584Z,100391.51
2018-02-11T04:45:16.285Z,100392.09
2018-02-11T04:47:47.693Z,100382.07
2018-02-11T04:50:16.590Z,100380.20
2018-02-11T04:52:45.471Z,100374.80
2018-02-11T04:55:14.101Z,100370.19
2018-02-11T04:57:42.573Z,100364.23
2018-02-11T05:06:02.218Z,100353.64
2018-02-11T05:08:30.744Z,100346.33
2018-02-11T05:10:59.251Z,100306.11
2018-02-11T05:13:27.768Z,100343.09
2018-02-11T05:15:56.310Z,100341.75
2018-02-11T05:18:24.956Z,100336.44
2018-02-11T05:20:53.598Z,100332.86
2018-02-11T05:23:22.305Z,100331.39
2018-02-11T05:25:51.375Z,100324.27
2018-02-11T05:28:20.063Z,100318.81
2018-02-11T05:30:48.955Z,100307.71
2018-02-11T05:33:17.435Z,100298.28
2018-02-11T05:35:46.112Z,100294.67
2018-02-11T05:38:14.660Z,100285.33
2018-02-11T05:40:43.280Z,100287.64
2018-02-11T05:43:11.809Z,100285.59
2018-02-11T05:45:42.594Z,100282.23
2018-02-11T05:48:13.779Z,100274.64
2018-02-11T05:50:42.094Z,100271.41
2018-02-11T05:53:10.362Z,100275.19
2018-02-11T05:55:38.714Z,100265.32
2018-02-11T05:58:07.022Z,100264.27
2018-02-11T06:00:35.570Z,100263.64
2018-02-11T06:03:03.831Z,100259.33
2018-02-11T06:05:32.157Z,100261.41
2018-02-11T06:08:00.439Z,100258.73
2018-02-11T06:10:28.846Z,100249.09
2018-02-11T06:12:57.126Z,100254.91
2018-02-11T06:15:25.486Z,100249.58
2018-02-11T06:17:53.892Z,100247.59
2018-02-11T06:20:22.211Z,100242.64
2018-02-11T06:22:50.603Z,100240.10
2018-02-11T06:25:18.949Z,100236.75
2018-02-11T06:27:47.377Z,100232.05
2018-02-11T06:30:15.667Z,100229.75
2018-02-11T06:32:44.143Z,100229.47
2018-02-11T06:35:12.450Z,100218.53
2018-02-11T06:37:40.727Z,100217.47
2018-02-11T06:40:09.191Z,100219.30
2018-02-11T06:42:37.481Z,100213.67
2018-02-11T06:45:05.826Z,100217.38
2018-02-11T06:47:34.151Z,100222.31
2018-02-11T06:50:02.495Z,100217.67
2018-02-11T06:52:30.822Z,100213.67
2018-02-11T06:54:59.089Z,100214.27
2018-02-11T06:57:27.451Z,100208.68
2018-02-11T06:59:55.744Z,100204.26
2018-02-11T07:02:24.253Z,100201.03
2018-02-11T07:04:52.587Z,100202.14
2018-02-11T07:07:20.920Z,100189.27
2018-02-11T07:09:49.191Z,100189.63
2018-02-11T07:12:17.706Z,100186.50
2018-02-11T07:14:46.015Z,100189.69
2018-02-11T07:17:14.468Z,100190.36
2018-02-11T07:19:42.747Z,100196.06
2018-02-11T07:22:11.138Z,100179.71
2018-02-11T07:24:39.641Z,100181.23
2018-02-11T07:27:07.982Z,100173.83
2018-02-11T07:29:36.259Z,100169.43
2018-02-11T07:32:04.579Z,100171.63
2018-02-11T07:34:32.885Z,100165.72
2018-02-11T07:37:01.265Z,100161.84
2018-02-11T07:39:29.551Z,100159.45
2018-02-11T07:41:57.899Z,100151.86
2018-02-11T07:44:26.257Z,100153.75
2018-02-11T07:46:54.613Z,100157.27
2018-02-11T07:49:23.102Z,100158.27
2018-02-11T07:51:51.597Z,100150.84
2018-02-11T07:54:19.891Z,100150.91
2018-02-11T07:56:48.278Z,100145.84
2018-02-11T07:59:16.775Z,100141.39
2018-02-11T08:01:45.095Z,100137.21
2018-02-11T08:04:13.402Z,100124.98
2018-02-11T08:06:41.960Z,100126.50
2018-02-11T08:09:10.472Z,100120.22
2018-02-11T08:11:39.053Z,100114.22
2018-02-11T08:14:07.566Z,100116.27
2018-02-11T08:16:36.183Z,100111.11
2018-02-11T08:19:04.490Z,100113.73
2018-02-11T08:21:33.190Z,100098.52
2018-02-11T08:24:01.730Z,100099.05
2018-02-11T08:26:30.084Z,100091.74
2018-02-11T08:29:01.184Z,100078.62
2018-02-11T08:31:29.627Z,100064.79
2018-02-11T08:33:59.288Z,100068.16
2018-02-11T08:36:28.094Z,100072.14
2018-02-11T08:38:57.891Z,100066.39
2018-02-11T08:41:26.405Z,100048.86
2018-02-11T08:43:54.712Z,100046.67
2018-02-11T08:46:23.088Z,100045.63
2018-02-11T08:48:51.954Z,100043.74
2018-02-11T08:51:20.619Z,100035.99
2018-02-11T08:53:49.523Z,100026.52
2018-02-11T08:56:17.905Z,100029.29
2018-02-11T08:58:46.268Z,100019.36
2018-02-11T09:01:14.876Z,100018.52
2018-02-11T09:03:43.188Z,100011.36
2018-02-11T09:06:12.714Z,100012.57
2018-02-11T09:08:41.050Z,100002.81
2018-02-11T09:11:10.464Z,100003.37
2018-02-11T09:13:39.020Z,99995.64
2018-02-11T09:16:07.349Z,99985.64
2018-02-11T09:18:35.633Z,99985.92
2018-02-11T09:21:05.146Z,99972.13
2018-02-11T09:23:33.430Z,99973.41
2018-02-11T09:26:02.143Z,99963.92
2018-02-11T09:28:30.991Z,99962.87
2018-02-11T09:31:00.536Z,99950.28
2018-02-11T09:33:29.432Z,99943.36
2018-02-11T09:35:58.027Z,99948.12
2018-02-11T09:38:26.568Z,99944.99
2018-02-11T09:40:55.059Z,99941.05
2018-02-11T09:43:23.508Z,99939.94
2018-02-11T09:45:51.834Z,99936.30
2018-02-11T09:48:20.155Z,99929.66
2018-02-11T09:50:48.457Z,99922.59
2018-02-11T09:53:16.762Z,99920.41
2018-02-11T09:55:45.071Z,99918.81
2018-02-11T09:58:13.364Z,99912.85
2018-02-11T10:00:41.676Z,99904.55
2018-02-11T10:03:09.992Z,99906.05
2018-02-11T10:05:38.355Z,99906.45
2018-02-11T10:08:06.689Z,99894.48
2018-02-11T10:10:35.171Z,99894.15
2018-02-11T10:13:03.735Z,99889.68
2018-02-11T10:15:34.317Z,99892.38
2018-02-11T10:18:02.619Z,99879.22
2018-02-11T10:20:30.952Z,99881.33
2018-02-11T10:22:59.247Z,99882.61
2018-02-11T10:25:27.727Z,99872.13
2018-02-11T10:27:56.014Z,99872.44
2018-02-11T10:30:24.446Z,99864.58
2018-02-11T10:32:52.711Z,99878.17
2018-02-11T10:35:21.206Z,99873.67
2018-02-11T10:37:49.550Z,99870.25
2018-02-11T10:40:17.855Z,99853.52
2018-02-11T10:42:46.221Z,99852.05
2018-02-11T10:45:14.519Z,99846.02
2018-02-11T10:47:42.998Z,99858.16
2018-02-11T10:50:11.317Z,99847.77
2018-02-11T10:52:39.605Z,99851.84
2018-02-11T10:55:08.912Z,99834.45
2018-02-11T10:57:37.236Z,99847.77
2018-02-11T11:00:05.603Z,99845.88
2018-02-11T11:02:33.904Z,99854.59
2018-02-11T11:05:02.409Z,99844.16
2018-02-11T11:08:33.834Z,99846.08
2018-02-11T11:11:02.342Z,99852.84
2018-02-11T11:13:30.609Z,99839.71
2018-02-11T11:15:58.918Z,99834.83
2018-02-11T11:18:27.161Z,99844.73
2018-02-11T11:20:55.565Z,99839.59
2018-02-11T11:23:23.896Z,99841.21
2018-02-11T11:25:52.334Z,99830.21
2018-02-11T11:28:20.662Z,99815.30
2018-02-11T11:30:48.974Z,99820.03
2018-02-11T11:33:17.316Z,99823.80
2018-02-11T11:35:45.621Z,99820.16
2018-02-11T11:38:13.955Z,99818.94
2018-02-11T11:40:42.404Z,99815.70
2018-02-11T11:43:10.724Z,99812.28
2018-02-11T11:45:39.046Z,99814.47
2018-02-11T11:48:07.362Z,99806.05
2018-02-11T11:50:35.649Z,99802.38
2018-02-11T11:53:03.903Z,99802.95
2018-02-11T11:55:32.440Z,99797.09
2018-02-11T11:58:00.727Z,99802.80
2018-02-11T12:00:29.013Z,99798.18
2018-02-11T12:02:57.726Z,99795.45
2018-02-11T12:05:26.049Z,99804.69
2018-02-11T12:07:54.570Z,99791.67
2018-02-11T12:10:22.872Z,99800.08
2018-02-11T12:12:51.267Z,99787.90
2018-02-11T12:15:21.813Z,99781.89
2018-02-11T12:17:54.949Z,99789.33
2018-02-11T12:20:23.787Z,99779.70
2018-02-11T12:22:52.685Z,99779.20
2018-02-11T12:25:21.065Z,99787.22
2018-02-11T12:27:49.364Z,99785.86
2018-02-11T12:30:17.659Z,99783.72
2018-02-11T12:32:45.959Z,99775.42
2018-02-11T12:35:14.446Z,99771.76
2018-02-11T12:37:42.886Z,99772.59
2018-02-11T12:40:11.209Z,99772.84
2018-02-11T12:42:39.678Z,99776.47
2018-02-11T12:45:08.635Z,99773.75
2018-02-11T12:47:36.942Z,99773.33
2018-02-11T12:50:05.255Z,99768.36
2018-02-11T12:52:33.546Z,99758.85
2018-02-11T12:55:01.813Z,99768.88
2018-02-11T12:57:30.380Z,99762.70
2018-02-11T12:59:58.666Z,99764.51
2018-02-11T13:02:27.025Z,99756.44
2018-02-11T13:04:56.693Z,99754.38
2018-02-11T13:07:25.750Z,99755.42
2018-02-11T13:09:54.540Z,99755.31
2018-02-11T13:12:23.122Z,99755.02
2018-02-11T13:14:51.404Z,99748.43
2018-02-11T13:17:19.778Z,99743.39
2018-02-11T13:19:50.676Z,99744.47
2018-02-11T13:22:21.101Z,99747.15
2018-02-11T13:24:50.124Z,99743.91
2018-02-11T13:27:18.994Z,99742.02
2018-02-11T13:29:48.274Z,99737.63
2018-02-11T13:32:16.746Z,99738.61
2018-02-11T13:34:45.740Z,99744.77
2018-02-11T13:37:14.824Z,99730.15
2018-02-11T13:39:44.011Z,99740.34
2018-02-11T13:42:12.665Z,99738.00
2018-02-11T13:44:40.995Z,99741.30
2018-02-11T13:47:12.220Z,99727.44
2018-02-11T13:49:42.808Z,99731.49
2018-02-11T13:52:11.203Z,99731.50
2018-02-11T13:54:39.569Z,99729.44
2018-02-11T13:57:08.016Z,99729.83
2018-02-11T13:59:36.387Z,99727.52
2018-02-11T14:02:06.008Z,99728.59
2018-02-11T14:04:35.442Z,99731.16
2018-02-11T14:07:03.796Z,99728.57
2018-02-11T14:09:36.704Z,99729.30
2018-02-11T14:12:05.330Z,99726.66
2018-02-11T14:14:34.260Z,99721.13
2018-02-11T14:17:02.790Z,99725.20
2018-02-11T14:19:31.996Z,99723.33
2018-02-11T14:22:00.523Z,99713.03
2018-02-11T14:24:28.839Z,99720.18
2018-02-11T14:26:57.578Z,99711.80
2018-02-11T14:29:26.071Z,99715.55
2018-02-11T14:31:55.281Z,99701.00
2018-02-11T14:34:23.922Z,99706.48
2018-02-11T14:37:05.644Z,99704.55
2018-02-11T14:48:56.438Z,99706.11
2018-02-11T14:51:25.034Z,99710.04
2018-02-11T14:54:01.588Z,99710.04
2018-02-11T14:56:57.170Z,99713.94
2018-02-11T15:03:08.885Z,99697.31
2018-02-11T15:10:50.246Z,99687.41
2018-02-11T15:16:27.256Z,99698.60
2018-02-11T15:19:06.044Z,99699.01
2018-02-11T15:21:34.780Z,99693.74
2018-02-11T21:56:43.199Z,99886.15
2018-02-11T21:59:11.314Z,99888.25
2018-02-11T22:01:39.759Z,99887.49
2018-02-11T22:04:08.055Z,99897.23
2018-02-11T22:06:36.347Z,99894.89
2018-02-11T22:09:05.066Z,99897.05
2018-02-11T22:11:33.450Z,99904.40
2018-02-11T22:14:01.922Z,99903.88
2018-02-11T22:16:32.120Z,99916.19
2018-02-11T22:19:01.039Z,99914.27
2018-02-11T22:21:29.375Z,99920.08
2018-02-11T22:23:57.846Z,99922.52
2018-02-11T22:26:26.410Z,99921.53
2018-02-11T22:29:00.290Z,99902.99
2018-02-11T22:31:32.147Z,99928.05
2018-02-11T22:34:00.899Z,99927.75
2018-02-11T22:36:29.849Z,99925.11
2018-02-11T22:38:59.344Z,99928.34
2018-02-11T22:41:28.014Z,99929.17
2018-02-11T22:43:57.925Z,99927.48
2018-02-11T22:46:26.375Z,99930.26
2018-02-11T22:48:55.510Z,99930.26
2018-02-11T22:51:30.434Z,99930.19
2018-02-11T22:53:58.745Z,99937.55
2018-02-11T22:56:27.561Z,99939.69
2018-02-11T23:01:24.295Z,99944.58
2018-02-11T23:03:52.932Z,99946.82
2018-02-11T23:06:21.417Z,99957.16
2018-02-11T23:08:49.689Z,99949.81
2018-02-11T23:11:18.010Z,99955.34
2018-02-11T23:13:46.418Z,99959.62
2018-02-11T23:16:14.878Z,99956.86
2018-02-11T23:18:43.171Z,99957.92
2018-02-11T23:21:11.488Z,99964.98
2018-02-11T23:23:40.008Z,99962.09
2018-02-11T23:26:08.317Z,99968.80
2018-02-11T23:28:36.906Z,99969.21
2018-02-11T23:31:05.330Z,99972.56
2018-02-11T23:33:33.851Z,99975.81
2018-02-11T23:36:02.151Z,99975.15
2018-02-11T23:38:31.023Z,99979.66
2018-02-11T23:40:59.529Z,99983.59
2018-02-11T23:43:27.938Z,99982.98
2018-02-11T23:45:56.430Z,99985.27
2018-02-11T23:48:24.780Z,99984.92
2018-02-11T23:50:54.424Z,99992.22
2018-02-11T23:53:24.258Z,100002.16
2018-02-11T23:55:52.742Z,99997.25
2018-02-11T23:58:21.354Z,100000.86
